sensor_id;sensor_type;location;lat;lon;timestamp;P1;durP1;ratioP1;P2;durP2;ratioP2
9675;SDS011;4876;42.656;23.292;2022-08-19T00:00:49;6.60;;;4.78;;
9675;SDS011;4876;42.656;23.292;2022-08-19T00:03:18;5.05;;;4.50;;
9675;SDS011;4876;42.656;23.292;2022-08-19T00:05:44;5.00;;;4.50;;
9675;SDS011;4876;42.656;23.292;2022-08-19T00:08:11;5.38;;;4.20;;
9675;SDS011;4876;42.656;23.292;2022-08-19T00:10:38;5.22;;;4.30;;
9675;SDS011;4876;42.656;23.292;2022-08-19T00:13:05;5.05;;;4.53;;
9675;SDS011;4876;42.656;23.292;2022-08-19T00:15:32;5.43;;;4.10;;
9675;SDS011;4876;42.656;23.292;2022-08-19T00:17:58;6.32;;;4.03;;
9675;SDS011;4876;42.656;23.292;2022-08-19T00:20:27;7.80;;;3.90;;
9675;SDS011;4876;42.656;23.292;2022-08-19T00:22:54;5.13;;;4.63;;
9675;SDS011;4876;42.656;23.292;2022-08-19T00:25:20;5.30;;;4.40;;
9675;SDS011;4876;42.656;23.292;2022-08-19T00:27:49;5.10;;;4.60;;
9675;SDS011;4876;42.656;23.292;2022-08-19T00:30:16;6.20;;;4.47;;
9675;SDS011;4876;42.656;23.292;2022-08-19T00:32:43;5.32;;;4.28;;
9675;SDS011;4876;42.656;23.292;2022-08-19T00:35:10;4.53;;;4.13;;
9675;SDS011;4876;42.656;23.292;2022-08-19T00:37:38;4.30;;;3.90;;
9675;SDS011;4876;42.656;23.292;2022-08-19T00:40:08;4.55;;;4.18;;
9675;SDS011;4876;42.656;23.292;2022-08-19T00:42:36;5.18;;;4.68;;
9675;SDS011;4876;42.656;23.292;2022-08-19T00:45:03;6.05;;;4.60;;
9675;SDS011;4876;42.656;23.292;2022-08-19T00:47:37;6.03;;;4.47;;
9675;SDS011;4876;42.656;23.292;2022-08-19T00:50:05;6.85;;;4.38;;
9675;SDS011;4876;42.656;23.292;2022-08-19T00:52:36;6.20;;;4.63;;
9675;SDS011;4876;42.656;23.292;2022-08-19T00:55:11;7.50;;;4.40;;
9675;SDS011;4876;42.656;23.292;2022-08-19T00:57:42;4.70;;;4.30;;
9675;SDS011;4876;42.656;23.292;2022-08-19T01:00:14;4.83;;;4.13;;
9675;SDS011;4876;42.656;23.292;2022-08-19T01:02:43;4.97;;;4.47;;
9675;SDS011;4876;42.656;23.292;2022-08-19T01:05:11;4.37;;;3.90;;
9675;SDS011;4876;42.656;23.292;2022-08-19T01:07:44;5.60;;;5.07;;
9675;SDS011;4876;42.656;23.292;2022-08-19T01:10:12;4.95;;;4.50;;
9675;SDS011;4876;42.656;23.292;2022-08-19T01:12:43;4.45;;;3.92;;
9675;SDS011;4876;42.656;23.292;2022-08-19T01:15:12;4.83;;;4.37;;
9675;SDS011;4876;42.656;23.292;2022-08-19T01:17:42;4.97;;;4.47;;
9675;SDS011;4876;42.656;23.292;2022-08-19T01:20:12;6.53;;;5.00;;
9675;SDS011;4876;42.656;23.292;2022-08-19T01:22:44;4.40;;;4.00;;
9675;SDS011;4876;42.656;23.292;2022-08-19T01:25:12;4.70;;;4.30;;
9675;SDS011;4876;42.656;23.292;2022-08-19T01:27:39;6.60;;;4.00;;
9675;SDS011;4876;42.656;23.292;2022-08-19T01:30:09;4.97;;;4.47;;
9675;SDS011;4876;42.656;23.292;2022-08-19T01:32:38;5.57;;;4.25;;
9675;SDS011;4876;42.656;23.292;2022-08-19T01:35:05;4.82;;;4.43;;
9675;SDS011;4876;42.656;23.292;2022-08-19T01:37:42;6.37;;;4.40;;
9675;SDS011;4876;42.656;23.292;2022-08-19T01:40:10;5.20;;;4.50;;
9675;SDS011;4876;42.656;23.292;2022-08-19T01:42:38;4.70;;;4.20;;
9675;SDS011;4876;42.656;23.292;2022-08-19T01:45:06;5.27;;;4.77;;
9675;SDS011;4876;42.656;23.292;2022-08-19T01:47:34;5.13;;;4.63;;
9675;SDS011;4876;42.656;23.292;2022-08-19T01:50:01;4.97;;;4.43;;
9675;SDS011;4876;42.656;23.292;2022-08-19T01:52:28;5.43;;;4.60;;
9675;SDS011;4876;42.656;23.292;2022-08-19T01:54:56;6.43;;;4.77;;
9675;SDS011;4876;42.656;23.292;2022-08-19T01:57:23;5.43;;;4.80;;
9675;SDS011;4876;42.656;23.292;2022-08-19T01:59:51;5.23;;;4.73;;
9675;SDS011;4876;42.656;23.292;2022-08-19T02:02:18;6.22;;;4.90;;
9675;SDS011;4876;42.656;23.292;2022-08-19T02:04:44;5.27;;;4.53;;
9675;SDS011;4876;42.656;23.292;2022-08-19T02:07:12;6.00;;;4.83;;
9675;SDS011;4876;42.656;23.292;2022-08-19T02:09:39;5.55;;;5.05;;
9675;SDS011;4876;42.656;23.292;2022-08-19T02:12:07;8.52;;;4.93;;
9675;SDS011;4876;42.656;23.292;2022-08-19T02:14:34;5.33;;;4.83;;
9675;SDS011;4876;42.656;23.292;2022-08-19T02:17:02;5.87;;;5.27;;
9675;SDS011;4876;42.656;23.292;2022-08-19T02:19:28;5.50;;;5.00;;
9675;SDS011;4876;42.656;23.292;2022-08-19T02:21:57;5.07;;;4.57;;
9675;SDS011;4876;42.656;23.292;2022-08-19T02:24:24;7.80;;;5.50;;
9675;SDS011;4876;42.656;23.292;2022-08-19T02:26:51;5.40;;;4.90;;
9675;SDS011;4876;42.656;23.292;2022-08-19T02:29:19;8.87;;;5.00;;
9675;SDS011;4876;42.656;23.292;2022-08-19T02:31:46;6.10;;;5.27;;
9675;SDS011;4876;42.656;23.292;2022-08-19T02:34:13;7.60;;;4.97;;
9675;SDS011;4876;42.656;23.292;2022-08-19T02:36:40;7.57;;;4.40;;
9675;SDS011;4876;42.656;23.292;2022-08-19T02:39:07;6.13;;;4.87;;
9675;SDS011;4876;42.656;23.292;2022-08-19T02:41:33;7.37;;;5.17;;
9675;SDS011;4876;42.656;23.292;2022-08-19T02:44:01;8.57;;;5.20;;
9675;SDS011;4876;42.656;23.292;2022-08-19T02:46:31;7.63;;;5.10;;
9675;SDS011;4876;42.656;23.292;2022-08-19T02:49:00;5.60;;;4.97;;
9675;SDS011;4876;42.656;23.292;2022-08-19T02:51:31;5.07;;;4.57;;
9675;SDS011;4876;42.656;23.292;2022-08-19T02:53:58;5.53;;;5.00;;
9675;SDS011;4876;42.656;23.292;2022-08-19T02:56:26;6.47;;;4.93;;
9675;SDS011;4876;42.656;23.292;2022-08-19T02:58:53;5.23;;;4.70;;
9675;SDS011;4876;42.656;23.292;2022-08-19T03:01:22;5.23;;;4.60;;
9675;SDS011;4876;42.656;23.292;2022-08-19T03:03:51;5.63;;;5.00;;
9675;SDS011;4876;42.656;23.292;2022-08-19T03:06:18;5.50;;;5.00;;
9675;SDS011;4876;42.656;23.292;2022-08-19T03:08:46;5.97;;;4.93;;
9675;SDS011;4876;42.656;23.292;2022-08-19T03:11:15;5.23;;;4.67;;
9675;SDS011;4876;42.656;23.292;2022-08-19T03:13:43;5.77;;;5.03;;
9675;SDS011;4876;42.656;23.292;2022-08-19T03:16:10;6.23;;;5.03;;
9675;SDS011;4876;42.656;23.292;2022-08-19T03:18:38;7.57;;;5.53;;
9675;SDS011;4876;42.656;23.292;2022-08-19T03:21:06;6.30;;;5.07;;
9675;SDS011;4876;42.656;23.292;2022-08-19T03:23:34;5.53;;;4.93;;
9675;SDS011;4876;42.656;23.292;2022-08-19T03:26:03;6.50;;;5.50;;
9675;SDS011;4876;42.656;23.292;2022-08-19T03:28:31;5.67;;;5.17;;
9675;SDS011;4876;42.656;23.292;2022-08-19T03:30:59;5.93;;;4.77;;
9675;SDS011;4876;42.656;23.292;2022-08-19T03:33:28;4.90;;;4.40;;
9675;SDS011;4876;42.656;23.292;2022-08-19T03:36:00;5.90;;;5.13;;
9675;SDS011;4876;42.656;23.292;2022-08-19T03:38:29;7.60;;;4.93;;
9675;SDS011;4876;42.656;23.292;2022-08-19T03:40:57;8.53;;;5.27;;
9675;SDS011;4876;42.656;23.292;2022-08-19T03:43:24;11.77;;;5.67;;
9675;SDS011;4876;42.656;23.292;2022-08-19T03:45:59;10.67;;;5.30;;
9675;SDS011;4876;42.656;23.292;2022-08-19T03:48:27;6.00;;;5.17;;
9675;SDS011;4876;42.656;23.292;2022-08-19T03:50:55;6.90;;;5.27;;
9675;SDS011;4876;42.656;23.292;2022-08-19T03:53:24;7.07;;;5.50;;
9675;SDS011;4876;42.656;23.292;2022-08-19T03:55:53;5.90;;;4.90;;
9675;SDS011;4876;42.656;23.292;2022-08-19T03:58:20;5.90;;;4.90;;
9675;SDS011;4876;42.656;23.292;2022-08-19T04:00:48;8.30;;;5.40;;
9675;SDS011;4876;42.656;23.292;2022-08-19T04:03:14;6.17;;;4.87;;
9675;SDS011;4876;42.656;23.292;2022-08-19T04:05:43;7.70;;;5.60;;
9675;SDS011;4876;42.656;23.292;2022-08-19T04:08:10;16.15;;;5.70;;
9675;SDS011;4876;42.656;23.292;2022-08-19T04:10:37;8.85;;;5.72;;
9675;SDS011;4876;42.656;23.292;2022-08-19T04:13:07;6.20;;;5.47;;
9675;SDS011;4876;42.656;23.292;2022-08-19T04:15:38;5.13;;;4.45;;
9675;SDS011;4876;42.656;23.292;2022-08-19T04:18:06;7.50;;;5.50;;
9675;SDS011;4876;42.656;23.292;2022-08-19T04:20:37;5.72;;;5.03;;
9675;SDS011;4876;42.656;23.292;2022-08-19T04:23:05;6.13;;;5.32;;
9675;SDS011;4876;42.656;23.292;2022-08-19T04:25:34;9.95;;;5.00;;
9675;SDS011;4876;42.656;23.292;2022-08-19T04:28:03;9.10;;;5.28;;
9675;SDS011;4876;42.656;23.292;2022-08-19T04:30:36;9.68;;;5.18;;
9675;SDS011;4876;42.656;23.292;2022-08-19T04:33:04;5.93;;;4.97;;
9675;SDS011;4876;42.656;23.292;2022-08-19T04:35:34;8.75;;;4.97;;
9675;SDS011;4876;42.656;23.292;2022-08-19T04:38:02;6.03;;;4.93;;
9675;SDS011;4876;42.656;23.292;2022-08-19T04:40:29;10.75;;;6.18;;
9675;SDS011;4876;42.656;23.292;2022-08-19T04:43:13;12.10;;;5.75;;
9675;SDS011;4876;42.656;23.292;2022-08-19T04:45:42;8.30;;;5.28;;
9675;SDS011;4876;42.656;23.292;2022-08-19T04:48:09;8.95;;;6.07;;
9675;SDS011;4876;42.656;23.292;2022-08-19T04:50:39;11.50;;;5.70;;
9675;SDS011;4876;42.656;23.292;2022-08-19T04:53:07;9.02;;;6.10;;
9675;SDS011;4876;42.656;23.292;2022-08-19T04:55:34;5.65;;;5.10;;
9675;SDS011;4876;42.656;23.292;2022-08-19T04:58:05;7.70;;;5.90;;
9675;SDS011;4876;42.656;23.292;2022-08-19T05:00:31;6.00;;;5.13;;
9675;SDS011;4876;42.656;23.292;2022-08-19T05:03:00;7.78;;;5.40;;
9675;SDS011;4876;42.656;23.292;2022-08-19T05:05:27;7.45;;;5.07;;
9675;SDS011;4876;42.656;23.292;2022-08-19T05:07:53;12.80;;;5.78;;
9675;SDS011;4876;42.656;23.292;2022-08-19T05:10:21;7.63;;;6.20;;
9675;SDS011;4876;42.656;23.292;2022-08-19T05:12:47;11.73;;;6.38;;
9675;SDS011;4876;42.656;23.292;2022-08-19T05:15:14;7.35;;;5.80;;
9675;SDS011;4876;42.656;23.292;2022-08-19T05:17:41;7.05;;;5.70;;
9675;SDS011;4876;42.656;23.292;2022-08-19T05:20:29;8.60;;;6.15;;
9675;SDS011;4876;42.656;23.292;2022-08-19T05:23:13;10.05;;;5.40;;
9675;SDS011;4876;42.656;23.292;2022-08-19T05:25:40;6.45;;;5.80;;
9675;SDS011;4876;42.656;23.292;2022-08-19T05:28:07;7.70;;;5.78;;
9675;SDS011;4876;42.656;23.292;2022-08-19T05:30:34;7.78;;;5.70;;
9675;SDS011;4876;42.656;23.292;2022-08-19T05:33:01;6.07;;;5.47;;
9675;SDS011;4876;42.656;23.292;2022-08-19T05:35:29;9.55;;;6.18;;
9675;SDS011;4876;42.656;23.292;2022-08-19T05:37:57;7.70;;;5.57;;
9675;SDS011;4876;42.656;23.292;2022-08-19T05:40:23;7.25;;;5.95;;
9675;SDS011;4876;42.656;23.292;2022-08-19T05:42:50;6.53;;;5.78;;
9675;SDS011;4876;42.656;23.292;2022-08-19T05:45:18;8.13;;;6.13;;
9675;SDS011;4876;42.656;23.292;2022-08-19T05:47:45;7.90;;;5.65;;
9675;SDS011;4876;42.656;23.292;2022-08-19T05:50:12;9.52;;;6.82;;
9675;SDS011;4876;42.656;23.292;2022-08-19T05:52:40;7.43;;;6.15;;
9675;SDS011;4876;42.656;23.292;2022-08-19T05:55:07;6.65;;;5.70;;
9675;SDS011;4876;42.656;23.292;2022-08-19T05:57:34;7.70;;;5.78;;
9675;SDS011;4876;42.656;23.292;2022-08-19T06:00:01;6.38;;;5.68;;
9675;SDS011;4876;42.656;23.292;2022-08-19T06:02:32;5.75;;;5.10;;
9675;SDS011;4876;42.656;23.292;2022-08-19T06:05:00;6.18;;;5.00;;
9675;SDS011;4876;42.656;23.292;2022-08-19T06:07:27;6.88;;;4.93;;
9675;SDS011;4876;42.656;23.292;2022-08-19T06:09:56;5.40;;;4.90;;
9675;SDS011;4876;42.656;23.292;2022-08-19T06:12:22;5.78;;;5.22;;
9675;SDS011;4876;42.656;23.292;2022-08-19T06:14:53;6.53;;;5.07;;
9675;SDS011;4876;42.656;23.292;2022-08-19T06:17:20;9.38;;;5.78;;
9675;SDS011;4876;42.656;23.292;2022-08-19T06:19:50;5.97;;;5.38;;
9675;SDS011;4876;42.656;23.292;2022-08-19T06:22:17;5.78;;;5.28;;
9675;SDS011;4876;42.656;23.292;2022-08-19T06:24:43;7.28;;;5.72;;
9675;SDS011;4876;42.656;23.292;2022-08-19T06:27:12;6.10;;;5.50;;
9675;SDS011;4876;42.656;23.292;2022-08-19T06:29:38;7.72;;;4.90;;
9675;SDS011;4876;42.656;23.292;2022-08-19T06:32:05;7.45;;;5.80;;
9675;SDS011;4876;42.656;23.292;2022-08-19T06:34:32;7.35;;;6.00;;
9675;SDS011;4876;42.656;23.292;2022-08-19T06:37:00;7.57;;;6.07;;
9675;SDS011;4876;42.656;23.292;2022-08-19T06:39:30;7.85;;;5.93;;
9675;SDS011;4876;42.656;23.292;2022-08-19T06:41:59;8.43;;;6.05;;
9675;SDS011;4876;42.656;23.292;2022-08-19T06:44:30;7.10;;;5.68;;
9675;SDS011;4876;42.656;23.292;2022-08-19T06:47:00;6.40;;;5.80;;
9675;SDS011;4876;42.656;23.292;2022-08-19T06:49:28;7.50;;;5.63;;
9675;SDS011;4876;42.656;23.292;2022-08-19T06:51:56;7.60;;;5.93;;
9675;SDS011;4876;42.656;23.292;2022-08-19T06:54:23;6.10;;;5.50;;
9675;SDS011;4876;42.656;23.292;2022-08-19T06:56:51;6.45;;;5.63;;
9675;SDS011;4876;42.656;23.292;2022-08-19T06:59:19;7.25;;;5.80;;
9675;SDS011;4876;42.656;23.292;2022-08-19T07:01:54;9.77;;;5.90;;
9675;SDS011;4876;42.656;23.292;2022-08-19T07:04:23;6.50;;;5.55;;
9675;SDS011;4876;42.656;23.292;2022-08-19T07:06:56;11.20;;;5.63;;
9675;SDS011;4876;42.656;23.292;2022-08-19T07:09:25;9.15;;;5.88;;
9675;SDS011;4876;42.656;23.292;2022-08-19T07:11:52;6.13;;;5.28;;
9675;SDS011;4876;42.656;23.292;2022-08-19T07:14:23;8.57;;;5.85;;
9675;SDS011;4876;42.656;23.292;2022-08-19T07:16:52;8.23;;;5.70;;
9675;SDS011;4876;42.656;23.292;2022-08-19T07:19:21;7.10;;;6.03;;
9675;SDS011;4876;42.656;23.292;2022-08-19T07:21:50;8.80;;;5.60;;
9675;SDS011;4876;42.656;23.292;2022-08-19T07:24:18;8.43;;;6.90;;
9675;SDS011;4876;42.656;23.292;2022-08-19T07:26:46;7.22;;;5.60;;
9675;SDS011;4876;42.656;23.292;2022-08-19T07:29:13;6.53;;;5.80;;
9675;SDS011;4876;42.656;23.292;2022-08-19T07:31:41;8.45;;;6.18;;
9675;SDS011;4876;42.656;23.292;2022-08-19T07:34:12;6.25;;;5.43;;
9675;SDS011;4876;42.656;23.292;2022-08-19T07:36:40;8.68;;;5.75;;
9675;SDS011;4876;42.656;23.292;2022-08-19T07:39:09;8.32;;;6.05;;
9675;SDS011;4876;42.656;23.292;2022-08-19T07:41:38;6.38;;;5.78;;
9675;SDS011;4876;42.656;23.292;2022-08-19T07:44:05;6.82;;;6.10;;
9675;SDS011;4876;42.656;23.292;2022-08-19T07:46:33;7.97;;;5.97;;
9675;SDS011;4876;42.656;23.292;2022-08-19T07:49:02;9.63;;;5.78;;
9675;SDS011;4876;42.656;23.292;2022-08-19T07:51:31;6.20;;;5.60;;
9675;SDS011;4876;42.656;23.292;2022-08-19T07:53:59;7.53;;;5.60;;
9675;SDS011;4876;42.656;23.292;2022-08-19T07:56:26;8.13;;;6.22;;
9675;SDS011;4876;42.656;23.292;2022-08-19T07:58:53;7.47;;;5.60;;
9675;SDS011;4876;42.656;23.292;2022-08-19T08:01:20;7.85;;;5.85;;
9675;SDS011;4876;42.656;23.292;2022-08-19T08:03:50;6.68;;;5.32;;
9675;SDS011;4876;42.656;23.292;2022-08-19T08:06:38;8.00;;;5.50;;
9675;SDS011;4876;42.656;23.292;2022-08-19T08:09:23;6.18;;;5.18;;
9675;SDS011;4876;42.656;23.292;2022-08-19T08:11:52;8.77;;;5.70;;
9675;SDS011;4876;42.656;23.292;2022-08-19T08:14:22;10.25;;;5.20;;
9675;SDS011;4876;42.656;23.292;2022-08-19T08:16:51;9.85;;;5.45;;
9675;SDS011;4876;42.656;23.292;2022-08-19T08:19:18;5.10;;;4.60;;
9675;SDS011;4876;42.656;23.292;2022-08-19T08:21:48;5.85;;;5.10;;
9675;SDS011;4876;42.656;23.292;2022-08-19T08:24:16;6.53;;;5.30;;
9675;SDS011;4876;42.656;23.292;2022-08-19T08:26:43;8.23;;;5.10;;
9675;SDS011;4876;42.656;23.292;2022-08-19T08:29:11;6.38;;;4.35;;
9675;SDS011;4876;42.656;23.292;2022-08-19T08:31:38;10.90;;;4.38;;
9675;SDS011;4876;42.656;23.292;2022-08-19T08:34:06;7.85;;;5.20;;
9675;SDS011;4876;42.656;23.292;2022-08-19T08:36:35;5.68;;;4.68;;
9675;SDS011;4876;42.656;23.292;2022-08-19T08:39:08;6.05;;;4.95;;
9675;SDS011;4876;42.656;23.292;2022-08-19T08:41:37;5.45;;;4.55;;
9675;SDS011;4876;42.656;23.292;2022-08-19T08:44:11;4.88;;;4.43;;
9675;SDS011;4876;42.656;23.292;2022-08-19T08:46:44;4.65;;;3.65;;
9675;SDS011;4876;42.656;23.292;2022-08-19T08:49:17;4.82;;;4.32;;
9675;SDS011;4876;42.656;23.292;2022-08-19T08:51:54;5.78;;;4.72;;
9675;SDS011;4876;42.656;23.292;2022-08-19T08:54:32;7.13;;;4.63;;
9675;SDS011;4876;42.656;23.292;2022-08-19T08:57:02;4.97;;;4.47;;
9675;SDS011;4876;42.656;23.292;2022-08-19T08:59:42;6.18;;;5.55;;
9675;SDS011;4876;42.656;23.292;2022-08-19T09:02:15;4.93;;;4.30;;
9675;SDS011;4876;42.656;23.292;2022-08-19T09:04:42;5.05;;;3.15;;
9675;SDS011;4876;42.656;23.292;2022-08-19T09:07:12;3.50;;;3.20;;
9675;SDS011;4876;42.656;23.292;2022-08-19T09:09:55;5.13;;;3.45;;
9675;SDS011;4876;42.656;23.292;2022-08-19T09:12:33;4.07;;;3.67;;
9675;SDS011;4876;42.656;23.292;2022-08-19T09:15:11;5.25;;;3.83;;
9675;SDS011;4876;42.656;23.292;2022-08-19T09:17:39;3.92;;;3.53;;
9675;SDS011;4876;42.656;23.292;2022-08-19T09:20:08;4.70;;;3.80;;
9675;SDS011;4876;42.656;23.292;2022-08-19T09:22:42;4.47;;;4.07;;
9675;SDS011;4876;42.656;23.292;2022-08-19T09:25:11;3.60;;;3.30;;
9675;SDS011;4876;42.656;23.292;2022-08-19T09:27:41;4.35;;;3.13;;
9675;SDS011;4876;42.656;23.292;2022-08-19T09:30:09;3.65;;;3.10;;
9675;SDS011;4876;42.656;23.292;2022-08-19T09:32:40;3.00;;;2.72;;
9675;SDS011;4876;42.656;23.292;2022-08-19T09:35:08;4.20;;;3.15;;
9675;SDS011;4876;42.656;23.292;2022-08-19T09:37:35;4.13;;;3.22;;
9675;SDS011;4876;42.656;23.292;2022-08-19T09:40:03;3.50;;;3.20;;
9675;SDS011;4876;42.656;23.292;2022-08-19T09:42:33;3.35;;;2.97;;
9675;SDS011;4876;42.656;23.292;2022-08-19T09:45:00;4.28;;;3.78;;
9675;SDS011;4876;42.656;23.292;2022-08-19T09:47:27;3.35;;;3.05;;
9675;SDS011;4876;42.656;23.292;2022-08-19T09:49:54;11.77;;;5.13;;
9675;SDS011;4876;42.656;23.292;2022-08-19T09:52:21;5.95;;;3.72;;
9675;SDS011;4876;42.656;23.292;2022-08-19T09:54:47;4.25;;;3.55;;
9675;SDS011;4876;42.656;23.292;2022-08-19T09:57:18;8.68;;;3.88;;
9675;SDS011;4876;42.656;23.292;2022-08-19T09:59:46;6.18;;;3.58;;
9675;SDS011;4876;42.656;23.292;2022-08-19T10:02:13;4.05;;;3.58;;
9675;SDS011;4876;42.656;23.292;2022-08-19T10:04:40;5.75;;;3.03;;
9675;SDS011;4876;42.656;23.292;2022-08-19T10:07:24;3.35;;;3.05;;
9675;SDS011;4876;42.656;23.292;2022-08-19T10:09:51;4.05;;;3.00;;
9675;SDS011;4876;42.656;23.292;2022-08-19T10:12:17;3.47;;;3.17;;
9675;SDS011;4876;42.656;23.292;2022-08-19T10:14:45;4.97;;;3.58;;
9675;SDS011;4876;42.656;23.292;2022-08-19T10:17:13;5.28;;;3.53;;
9675;SDS011;4876;42.656;23.292;2022-08-19T10:19:40;5.32;;;3.33;;
9675;SDS011;4876;42.656;23.292;2022-08-19T10:22:07;4.68;;;4.05;;
9675;SDS011;4876;42.656;23.292;2022-08-19T10:24:36;3.97;;;3.53;;
9675;SDS011;4876;42.656;23.292;2022-08-19T10:27:03;4.20;;;3.80;;
9675;SDS011;4876;42.656;23.292;2022-08-19T10:29:31;6.45;;;4.30;;
9675;SDS011;4876;42.656;23.292;2022-08-19T10:32:01;4.45;;;4.05;;
9675;SDS011;4876;42.656;23.292;2022-08-19T10:34:29;5.45;;;3.90;;
9675;SDS011;4876;42.656;23.292;2022-08-19T10:36:57;4.70;;;3.75;;
9675;SDS011;4876;42.656;23.292;2022-08-19T10:39:24;3.42;;;3.13;;
9675;SDS011;4876;42.656;23.292;2022-08-19T10:41:53;5.45;;;4.18;;
9675;SDS011;4876;42.656;23.292;2022-08-19T10:44:21;5.63;;;3.88;;
9675;SDS011;4876;42.656;23.292;2022-08-19T10:46:48;7.22;;;4.28;;
9675;SDS011;4876;42.656;23.292;2022-08-19T10:49:16;6.57;;;3.85;;
9675;SDS011;4876;42.656;23.292;2022-08-19T10:51:44;4.32;;;2.92;;
9675;SDS011;4876;42.656;23.292;2022-08-19T10:54:28;4.65;;;3.75;;
9675;SDS011;4876;42.656;23.292;2022-08-19T10:57:08;5.93;;;4.30;;
9675;SDS011;4876;42.656;23.292;2022-08-19T10:59:35;4.47;;;3.83;;
9675;SDS011;4876;42.656;23.292;2022-08-19T11:02:04;5.80;;;4.15;;
9675;SDS011;4876;42.656;23.292;2022-08-19T11:04:36;4.20;;;3.85;;
9675;SDS011;4876;42.656;23.292;2022-08-19T11:07:04;3.95;;;3.47;;
9675;SDS011;4876;42.656;23.292;2022-08-19T11:09:36;6.03;;;4.40;;
9675;SDS011;4876;42.656;23.292;2022-08-19T11:12:05;4.57;;;4.15;;
9675;SDS011;4876;42.656;23.292;2022-08-19T11:14:34;4.85;;;4.00;;
9675;SDS011;4876;42.656;23.292;2022-08-19T11:17:01;4.43;;;4.03;;
9675;SDS011;4876;42.656;23.292;2022-08-19T11:19:28;7.82;;;3.47;;
9675;SDS011;4876;42.656;23.292;2022-08-19T11:21:57;4.88;;;4.40;;
9675;SDS011;4876;42.656;23.292;2022-08-19T11:24:28;5.20;;;3.97;;
9675;SDS011;4876;42.656;23.292;2022-08-19T11:26:58;8.40;;;3.70;;
9675;SDS011;4876;42.656;23.292;2022-08-19T11:29:29;4.15;;;3.75;;
9675;SDS011;4876;42.656;23.292;2022-08-19T11:31:56;4.55;;;3.85;;
9675;SDS011;4876;42.656;23.292;2022-08-19T11:34:24;5.68;;;4.32;;
9675;SDS011;4876;42.656;23.292;2022-08-19T11:36:53;4.47;;;4.07;;
9675;SDS011;4876;42.656;23.292;2022-08-19T11:39:25;4.25;;;3.85;;
9675;SDS011;4876;42.656;23.292;2022-08-19T11:41:53;6.07;;;3.92;;
9675;SDS011;4876;42.656;23.292;2022-08-19T11:44:19;4.10;;;3.72;;
9675;SDS011;4876;42.656;23.292;2022-08-19T11:46:46;4.60;;;4.13;;
9675;SDS011;4876;42.656;23.292;2022-08-19T11:49:13;5.20;;;4.25;;
9675;SDS011;4876;42.656;23.292;2022-08-19T11:51:41;5.25;;;3.65;;
9675;SDS011;4876;42.656;23.292;2022-08-19T11:54:09;6.15;;;4.20;;
9675;SDS011;4876;42.656;23.292;2022-08-19T11:56:39;6.65;;;4.10;;
9675;SDS011;4876;42.656;23.292;2022-08-19T11:59:07;6.50;;;4.32;;
9675;SDS011;4876;42.656;23.292;2022-08-19T12:01:34;4.50;;;4.10;;
9675;SDS011;4876;42.656;23.292;2022-08-19T12:04:01;5.43;;;4.53;;
9675;SDS011;4876;42.656;23.292;2022-08-19T12:06:30;6.07;;;3.90;;
9675;SDS011;4876;42.656;23.292;2022-08-19T12:09:00;6.00;;;4.47;;
9675;SDS011;4876;42.656;23.292;2022-08-19T12:11:30;4.45;;;3.95;;
9675;SDS011;4876;42.656;23.292;2022-08-19T12:13:58;4.82;;;4.07;;
9675;SDS011;4876;42.656;23.292;2022-08-19T12:16:26;8.55;;;4.55;;
9675;SDS011;4876;42.656;23.292;2022-08-19T12:18:56;4.38;;;3.65;;
9675;SDS011;4876;42.656;23.292;2022-08-19T12:21:25;5.75;;;3.83;;
9675;SDS011;4876;42.656;23.292;2022-08-19T12:23:54;6.38;;;4.70;;
9675;SDS011;4876;42.656;23.292;2022-08-19T12:26:22;4.30;;;3.90;;
9675;SDS011;4876;42.656;23.292;2022-08-19T12:28:49;4.60;;;4.10;;
9675;SDS011;4876;42.656;23.292;2022-08-19T12:31:17;4.70;;;4.00;;
9675;SDS011;4876;42.656;23.292;2022-08-19T12:33:45;6.68;;;4.38;;
9675;SDS011;4876;42.656;23.292;2022-08-19T12:36:14;5.40;;;4.10;;
9675;SDS011;4876;42.656;23.292;2022-08-19T12:38:42;5.35;;;4.85;;
9675;SDS011;4876;42.656;23.292;2022-08-19T12:41:10;4.55;;;4.15;;
9675;SDS011;4876;42.656;23.292;2022-08-19T12:43:38;4.40;;;4.00;;
9675;SDS011;4876;42.656;23.292;2022-08-19T12:46:06;5.13;;;4.38;;
9675;SDS011;4876;42.656;23.292;2022-08-19T12:48:35;4.47;;;4.00;;
9675;SDS011;4876;42.656;23.292;2022-08-19T12:51:05;6.88;;;4.85;;
9675;SDS011;4876;42.656;23.292;2022-08-19T12:53:34;4.65;;;4.03;;
9675;SDS011;4876;42.656;23.292;2022-08-19T12:56:01;4.78;;;4.13;;
9675;SDS011;4876;42.656;23.292;2022-08-19T12:58:30;4.57;;;4.13;;
9675;SDS011;4876;42.656;23.292;2022-08-19T13:00:59;6.30;;;3.63;;
9675;SDS011;4876;42.656;23.292;2022-08-19T13:03:26;5.22;;;4.70;;
9675;SDS011;4876;42.656;23.292;2022-08-19T13:05:56;5.00;;;4.28;;
9675;SDS011;4876;42.656;23.292;2022-08-19T13:08:22;7.85;;;4.13;;
9675;SDS011;4876;42.656;23.292;2022-08-19T13:10:49;6.50;;;3.88;;
9675;SDS011;4876;42.656;23.292;2022-08-19T13:13:16;5.18;;;4.00;;
9675;SDS011;4876;42.656;23.292;2022-08-19T13:15:43;5.05;;;4.18;;
9675;SDS011;4876;42.656;23.292;2022-08-19T13:18:11;4.82;;;3.90;;
9675;SDS011;4876;42.656;23.292;2022-08-19T13:20:39;6.22;;;3.70;;
9675;SDS011;4876;42.656;23.292;2022-08-19T13:23:08;8.00;;;4.85;;
9675;SDS011;4876;42.656;23.292;2022-08-19T13:25:35;4.32;;;3.97;;
9675;SDS011;4876;42.656;23.292;2022-08-19T13:28:02;4.95;;;4.45;;
9675;SDS011;4876;42.656;23.292;2022-08-19T13:30:31;6.85;;;4.13;;
9675;SDS011;4876;42.656;23.292;2022-08-19T13:33:16;4.38;;;3.97;;
9675;SDS011;4876;42.656;23.292;2022-08-19T13:35:45;4.68;;;4.22;;
9675;SDS011;4876;42.656;23.292;2022-08-19T13:38:16;4.65;;;3.92;;
9675;SDS011;4876;42.656;23.292;2022-08-19T13:40:45;4.80;;;4.30;;
9675;SDS011;4876;42.656;23.292;2022-08-19T13:43:13;4.95;;;4.15;;
9675;SDS011;4876;42.656;23.292;2022-08-19T13:45:40;4.00;;;3.65;;
9675;SDS011;4876;42.656;23.292;2022-08-19T13:48:07;4.38;;;3.90;;
9675;SDS011;4876;42.656;23.292;2022-08-19T13:50:35;5.13;;;4.40;;
9675;SDS011;4876;42.656;23.292;2022-08-19T13:53:07;4.10;;;3.65;;
9675;SDS011;4876;42.656;23.292;2022-08-19T13:55:36;6.15;;;3.95;;
9675;SDS011;4876;42.656;23.292;2022-08-19T13:58:03;4.40;;;4.00;;
9675;SDS011;4876;42.656;23.292;2022-08-19T14:00:32;6.63;;;3.90;;
9675;SDS011;4876;42.656;23.292;2022-08-19T14:03:00;5.13;;;3.55;;
9675;SDS011;4876;42.656;23.292;2022-08-19T14:05:28;3.97;;;3.58;;
9675;SDS011;4876;42.656;23.292;2022-08-19T14:07:56;3.63;;;3.33;;
9675;SDS011;4876;42.656;23.292;2022-08-19T14:10:23;4.85;;;3.78;;
9675;SDS011;4876;42.656;23.292;2022-08-19T14:12:53;4.80;;;4.40;;
9675;SDS011;4876;42.656;23.292;2022-08-19T14:15:23;5.13;;;4.05;;
9675;SDS011;4876;42.656;23.292;2022-08-19T14:17:50;8.20;;;4.00;;
9675;SDS011;4876;42.656;23.292;2022-08-19T14:20:17;6.43;;;4.30;;
9675;SDS011;4876;42.656;23.292;2022-08-19T14:22:45;3.92;;;3.53;;
9675;SDS011;4876;42.656;23.292;2022-08-19T14:25:13;4.95;;;4.45;;
9675;SDS011;4876;42.656;23.292;2022-08-19T14:27:41;4.57;;;4.18;;
9675;SDS011;4876;42.656;23.292;2022-08-19T14:30:12;6.88;;;4.60;;
9675;SDS011;4876;42.656;23.292;2022-08-19T14:32:40;4.57;;;4.15;;
9675;SDS011;4876;42.656;23.292;2022-08-19T14:35:09;7.00;;;5.38;;
9675;SDS011;4876;42.656;23.292;2022-08-19T14:37:37;4.38;;;3.97;;
9675;SDS011;4876;42.656;23.292;2022-08-19T14:40:05;6.53;;;4.50;;
9675;SDS011;4876;42.656;23.292;2022-08-19T14:42:36;4.95;;;4.20;;
9675;SDS011;4876;42.656;23.292;2022-08-19T14:45:03;4.70;;;4.20;;
9675;SDS011;4876;42.656;23.292;2022-08-19T14:47:32;5.28;;;4.63;;
9675;SDS011;4876;42.656;23.292;2022-08-19T14:49:59;7.00;;;3.88;;
9675;SDS011;4876;42.656;23.292;2022-08-19T14:52:26;6.00;;;4.35;;
9675;SDS011;4876;42.656;23.292;2022-08-19T14:54:53;6.90;;;4.35;;
9675;SDS011;4876;42.656;23.292;2022-08-19T14:57:20;5.95;;;4.53;;
9675;SDS011;4876;42.656;23.292;2022-08-19T14:59:47;5.47;;;4.32;;
9675;SDS011;4876;42.656;23.292;2022-08-19T15:02:15;4.63;;;4.22;;
9675;SDS011;4876;42.656;23.292;2022-08-19T15:04:43;4.88;;;4.38;;
9675;SDS011;4876;42.656;23.292;2022-08-19T15:07:10;6.88;;;4.45;;
9675;SDS011;4876;42.656;23.292;2022-08-19T15:09:37;4.88;;;4.05;;